createdAt,value
2024-05-09T00:03:03.110Z,84.51
2024-05-09T00:08:07.054Z,85.91
2024-05-09T00:13:11.314Z,85.85
2024-05-09T00:18:14.670Z,86.12
2024-05-09T00:23:36.245Z,85.01
2024-05-09T00:28:39.784Z,84.21
2024-05-09T00:33:43.279Z,85.11
2024-05-09T00:38:47.952Z,84.88
2024-05-09T00:43:51.238Z,83.94
2024-05-09T00:48:54.647Z,83.53
2024-05-09T00:53:58.263Z,83.95
2024-05-09T00:59:01.547Z,84.06
2024-05-09T01:04:05.149Z,84.33
2024-05-09T01:09:08.444Z,84.51
2024-05-09T01:14:11.638Z,85.12
2024-05-09T01:19:26.993Z,84.54
2024-05-09T01:24:30.183Z,84.12
2024-05-09T01:29:33.775Z,84.04
2024-05-09T01:34:36.937Z,84.27
2024-05-09T01:39:40.198Z,83.50
2024-05-09T01:44:47.180Z,82.58
2024-05-09T01:49:50.456Z,81.98
2024-05-09T01:54:53.641Z,81.32
2024-05-09T01:59:56.895Z,80.91
2024-05-09T02:05:00.515Z,80.21
2024-05-09T02:10:10.820Z,80.06
2024-05-09T02:15:19.300Z,80.22
2024-05-09T02:20:30.709Z,79.72
2024-05-09T02:25:39.111Z,78.98
2024-05-09T02:30:42.820Z,79.40
2024-05-09T02:35:45.973Z,78.38
2024-05-09T02:40:49.106Z,78.69
2024-05-09T02:45:52.155Z,79.33
2024-05-09T02:50:55.357Z,78.61
2024-05-09T02:55:58.556Z,79.33
2024-05-09T03:01:02.005Z,79.28
2024-05-09T03:06:05.371Z,78.36
2024-05-09T03:11:08.700Z,81.17
2024-05-09T03:16:13.395Z,89.16
2024-05-09T03:21:16.422Z,89.31
2024-05-09T03:26:19.801Z,96.54
2024-05-09T03:31:23.628Z,97.72
2024-05-09T03:36:26.768Z,93.84
2024-05-09T03:41:30.157Z,96.50
2024-05-09T03:46:38.190Z,91.94
2024-05-09T03:51:41.425Z,88.37
2024-05-09T03:56:44.619Z,85.60
2024-05-09T04:01:47.859Z,100.00
2024-05-09T04:06:51.268Z,100.00
2024-05-09T04:11:54.536Z,100.00
2024-05-09T04:16:57.810Z,95.42
2024-05-09T04:22:00.814Z,89.68
2024-05-09T04:27:04.102Z,94.00
2024-05-09T04:32:08.256Z,100.00
2024-05-09T04:37:11.577Z,100.00
2024-05-09T04:42:14.739Z,100.00
2024-05-09T04:47:17.922Z,100.00
2024-05-09T04:52:21.177Z,100.00
2024-05-09T04:57:24.176Z,100.00
2024-05-09T05:02:27.337Z,100.00
2024-05-09T05:07:30.561Z,100.00
2024-05-09T05:12:51.917Z,100.00
2024-05-09T05:17:55.499Z,100.00
2024-05-09T05:22:58.692Z,100.00
2024-05-09T05:28:01.933Z,100.00
2024-05-09T05:33:07.098Z,98.25
2024-05-09T05:38:11.506Z,97.39
2024-05-09T05:43:19.231Z,92.72
2024-05-09T05:48:28.592Z,90.54
2024-05-09T05:53:31.682Z,89.14
2024-05-09T05:58:34.727Z,85.58
2024-05-09T06:03:38.363Z,79.68
2024-05-09T06:08:41.695Z,76.30
2024-05-09T06:13:44.876Z,75.29
2024-05-09T06:18:48.262Z,74.61
2024-05-09T06:23:51.439Z,72.63
2024-05-09T06:28:54.872Z,73.98
2024-05-09T06:33:58.683Z,73.12
2024-05-09T06:39:01.896Z,71.54
2024-05-09T06:44:05.336Z,69.60
2024-05-09T06:49:09.907Z,68.39
2024-05-09T06:54:13.138Z,67.08
2024-05-09T06:59:16.775Z,65.43
2024-05-09T07:04:20.351Z,60.16
2024-05-09T07:09:23.508Z,54.09
2024-05-09T07:14:26.721Z,55.35
2024-05-09T07:19:30.187Z,53.23
2024-05-09T07:24:33.490Z,49.25
2024-05-09T07:29:38.677Z,42.19
2024-05-09T07:34:42.614Z,50.99
2024-05-09T07:39:45.820Z,50.37
2024-05-09T07:45:29.539Z,49.47
2024-05-09T07:55:37.771Z,49.43
2024-05-09T08:00:41.045Z,47.75
2024-05-09T08:05:44.426Z,49.88
2024-05-09T08:10:47.709Z,49.30
2024-05-09T08:15:52.209Z,51.51
2024-05-09T08:20:55.825Z,49.23
2024-05-09T08:26:00.180Z,52.25
2024-05-09T08:31:06.723Z,49.50
2024-05-09T08:36:10.932Z,50.26
2024-05-09T08:41:17.044Z,49.68
2024-05-09T08:46:20.343Z,50.15
2024-05-09T08:51:23.599Z,47.01
2024-05-09T08:56:28.778Z,44.35
2024-05-09T09:01:34.169Z,42.87
2024-05-09T09:06:40.466Z,42.01
2024-05-09T09:11:43.618Z,37.99
2024-05-09T09:16:46.996Z,40.53
2024-05-09T09:21:50.274Z,36.04
2024-05-09T09:26:53.370Z,35.33
2024-05-09T09:32:04.824Z,35.14
2024-05-09T09:37:11.562Z,36.62
2024-05-09T09:42:18.362Z,34.02
2024-05-09T09:47:23.286Z,33.14
2024-05-09T09:52:27.517Z,32.85
2024-05-09T09:57:33.928Z,27.74
2024-05-09T10:02:37.095Z,27.73
2024-05-09T10:07:52.805Z,26.82
2024-05-09T10:13:09.010Z,27.01
2024-05-09T10:18:13.244Z,26.37
2024-05-09T10:23:28.120Z,28.47
2024-05-09T10:28:33.234Z,29.86
2024-05-09T10:33:40.052Z,29.73
2024-05-09T10:38:45.136Z,29.09
2024-05-09T10:43:49.271Z,28.50
2024-05-09T10:48:52.706Z,26.22
2024-05-09T10:53:58.067Z,28.48
2024-05-09T10:59:04.358Z,29.05
2024-05-09T11:04:08.852Z,27.39
2024-05-09T11:09:12.813Z,29.38
2024-05-09T11:14:17.690Z,31.49
2024-05-09T11:19:21.109Z,32.03
2024-05-09T11:24:24.456Z,31.39
2024-05-09T11:29:45.024Z,49.24
2024-05-09T11:34:48.085Z,54.17
2024-05-09T11:39:51.705Z,55.03
2024-05-09T11:44:54.744Z,55.93
2024-05-09T11:49:58.282Z,53.75
2024-05-09T11:55:03.157Z,52.46
2024-05-09T12:00:09.614Z,51.61
2024-05-09T12:05:15.128Z,52.08
2024-05-09T12:10:22.310Z,51.83
2024-05-09T12:15:29.240Z,49.00
2024-05-09T12:20:38.416Z,47.90
2024-05-09T12:25:43.327Z,45.46
2024-05-09T12:30:46.934Z,44.55
2024-05-09T12:35:51.139Z,43.64
2024-05-09T12:40:55.411Z,43.38
2024-05-09T12:45:58.931Z,42.68
2024-05-09T12:51:02.175Z,42.91
2024-05-09T12:56:07.204Z,42.49
2024-05-09T13:01:12.096Z,44.75
2024-05-09T13:06:15.506Z,54.01
2024-05-09T13:11:18.858Z,63.11
2024-05-09T13:16:40.651Z,68.11
2024-05-09T13:21:44.162Z,73.16
2024-05-09T13:26:47.575Z,75.20
2024-05-09T13:31:51.696Z,85.22
2024-05-09T13:36:55.059Z,98.46
2024-05-09T13:41:58.669Z,100.00
2024-05-09T13:47:02.204Z,95.67
2024-05-09T13:52:05.885Z,90.75
2024-05-09T13:57:09.158Z,84.01
2024-05-09T14:02:12.414Z,74.87
2024-05-09T14:07:16.042Z,67.54
2024-05-09T14:12:19.242Z,65.34
2024-05-09T14:17:22.624Z,62.85
2024-05-09T14:22:25.856Z,60.13
2024-05-09T14:27:30.028Z,59.21
2024-05-09T14:32:33.638Z,59.66
2024-05-09T14:37:39.367Z,62.24
2024-05-09T14:42:43.368Z,64.15
2024-05-09T14:47:46.854Z,68.69
2024-05-09T14:52:50.169Z,71.51
2024-05-09T14:57:53.620Z,73.23
2024-05-09T15:02:57.007Z,73.80
2024-05-09T15:08:00.382Z,77.62
2024-05-09T15:13:04.799Z,89.95
2024-05-09T15:18:11.485Z,88.72
2024-05-09T15:23:14.772Z,93.92
2024-05-09T15:28:18.569Z,81.77
2024-05-09T15:33:21.917Z,77.21
2024-05-09T15:38:26.682Z,73.83
2024-05-09T15:43:30.721Z,73.24
2024-05-09T15:48:34.512Z,70.88
2024-05-09T15:53:37.837Z,68.29
2024-05-09T15:58:40.963Z,67.49
2024-05-09T16:03:44.428Z,67.04
2024-05-09T16:08:47.761Z,70.32
2024-05-09T16:13:51.000Z,73.01
2024-05-09T16:18:54.121Z,72.37
2024-05-09T16:23:57.223Z,75.56
2024-05-09T16:29:00.556Z,78.16
2024-05-09T16:34:04.046Z,79.13
2024-05-09T16:39:07.472Z,79.26
2024-05-09T16:44:11.117Z,79.89
2024-05-09T16:49:14.269Z,80.55
2024-05-09T16:54:17.527Z,80.20
2024-05-09T16:59:22.223Z,80.41
2024-05-09T17:04:25.545Z,81.75
2024-05-09T17:09:28.662Z,82.91
2024-05-09T17:14:50.607Z,83.58
2024-05-09T17:19:54.158Z,82.29
2024-05-09T17:24:57.471Z,81.71
2024-05-09T17:30:01.795Z,81.67
2024-05-09T17:35:07.258Z,83.05
2024-05-09T17:40:16.913Z,83.46
2024-05-09T17:45:21.549Z,82.85
2024-05-09T17:50:31.489Z,82.00
2024-05-09T17:55:39.386Z,80.55
2024-05-09T18:00:43.079Z,79.11
2024-05-09T18:05:46.532Z,79.37
2024-05-09T18:15:53.255Z,80.90
2024-05-09T18:20:56.576Z,80.91
2024-05-09T18:25:59.895Z,80.73
2024-05-09T18:31:03.168Z,81.05
2024-05-09T18:36:06.788Z,80.44
2024-05-09T18:41:09.988Z,79.37
2024-05-09T18:46:13.909Z,78.21
2024-05-09T18:51:17.406Z,78.70
2024-05-09T18:56:20.715Z,77.78
2024-05-09T19:01:23.891Z,77.84
2024-05-09T19:06:27.228Z,76.93
2024-05-09T19:11:31.034Z,77.32
2024-05-09T19:16:35.285Z,76.55
2024-05-09T19:21:42.140Z,76.41
2024-05-09T19:26:45.899Z,76.03
2024-05-09T19:31:49.155Z,76.12
2024-05-09T19:36:52.914Z,77.06
2024-05-09T19:41:56.340Z,76.60
2024-05-09T19:46:59.680Z,76.45
2024-05-09T19:52:02.998Z,76.67
2024-05-09T19:57:06.258Z,75.94
2024-05-09T20:02:09.528Z,75.00
2024-05-09T20:07:13.247Z,74.90
2024-05-09T20:12:16.478Z,74.22
2024-05-09T20:17:19.651Z,73.16
2024-05-09T20:22:22.826Z,73.94
2024-05-09T20:27:25.922Z,73.60
2024-05-09T20:32:29.236Z,71.93
2024-05-09T20:37:32.433Z,70.87
2024-05-09T20:42:35.579Z,70.35
2024-05-09T20:47:39.376Z,70.75
2024-05-09T20:52:42.519Z,70.28
2024-05-09T20:57:45.715Z,70.36
2024-05-09T21:02:49.039Z,69.40
2024-05-09T21:07:52.155Z,69.63
2024-05-09T21:12:55.231Z,69.51
2024-05-09T21:17:58.693Z,70.10
2024-05-09T21:23:02.695Z,70.02
2024-05-09T21:28:06.411Z,70.04
2024-05-09T21:33:11.678Z,71.13
2024-05-09T21:38:34.862Z,71.18
2024-05-09T21:43:38.539Z,71.02
2024-05-09T21:48:42.046Z,70.58
2024-05-09T21:53:45.356Z,70.93
2024-05-09T21:58:48.697Z,70.61
2024-05-09T22:03:51.955Z,70.81
2024-05-09T22:08:55.157Z,71.91
2024-05-09T22:13:58.146Z,72.43
2024-05-09T22:19:01.266Z,72.38
2024-05-09T22:24:04.590Z,72.19
2024-05-09T22:29:07.877Z,72.22
2024-05-09T22:34:11.061Z,72.16
2024-05-09T22:39:14.174Z,71.48
2024-05-09T22:44:17.222Z,71.37
2024-05-09T22:49:20.865Z,71.69
2024-05-09T22:54:23.960Z,71.25
2024-05-09T22:59:29.517Z,70.91
2024-05-09T23:04:32.891Z,70.85
2024-05-09T23:09:36.049Z,70.27
2024-05-09T23:14:39.394Z,70.56
2024-05-09T23:19:43.219Z,70.19
2024-05-09T23:24:47.463Z,70.62
2024-05-09T23:29:50.515Z,70.71
2024-05-09T23:34:53.784Z,71.08
2024-05-09T23:39:57.079Z,70.59
2024-05-09T23:45:00.123Z,70.17
2024-05-09T23:50:06.708Z,70.01
2024-05-09T23:55:11.877Z,69.61
